arxmliv
arxmliv build tool
 
KWARC group
LaTeXML
About
   
 

Detailed info

Back to Homepage

List of missing_macros

No. Date Filename num_warningnum_errornum_xmargok_xmargnum_xmathok_xmathMissing macros
122601 2013-03-07 21:38:42 /0511/hep-ex.0511062 2620000[\layoutstyle, \classification].
122602 2013-03-07 21:38:41 /0511/hep-ex.0511055 110000[\institute].
122603 2013-03-07 21:38:37 /0511/gr-qc.0511151 18680000[\citen].
122604 2013-03-07 21:38:36 /0511/hep-ex.0511058 23200000[\includegraphics, \abstracts, \rotatebox, \psfig]; 1 missing file[ws.sty].
122605 2013-03-07 21:38:32 /0511/hep-lat.0511001 210000[\institute].
122606 2013-03-07 21:38:24 /0511/hep-ex.0511045 310000[\abstracts].
122607 2013-03-07 21:38:20 /0511/hep-ex.0511047 210000[\institute].
122608 2013-03-07 21:38:12 /0511/hep-ex.0511051 030000[\PACS, \ie]; 1 missing file[size11.clo.sty].
122609 2013-03-07 21:38:11 /0511/hep-ex.0511052 830000[\address, \abstracts]; 1 missing file[Blois.sty].
122610 2013-03-07 21:38:06 /0511/hep-ex.0511043 4860000[\eqref, {theacknowledgments}, \layoutstyle, \tablehead, \classification]; 1 missing file[{aipcheck}].
122611 2013-03-07 21:38:05 /0511/hep-ex.0511034 2210000[\epsfbox, \abstracts, \refcite, \epsfxsize]; 1 missing file[ws.sty].
122612 2013-03-07 21:38:03 /0511/hep-ex.0511035 020000[\PACS]; 1 missing file[size11.clo.sty].
122613 2013-03-07 21:37:56 /0511/hep-ex.0511041 920000[\layoutstyle, \classification].
122614 2013-03-07 21:37:54 /0511/gr-qc.0511088 9380000[\prefacesection, \afterpreface, \beforepreface]; 2 missing files[report.sty, identfirst.sty].
122615 2013-03-07 21:37:46 /0511/hep-ex.0511029 3440000[{overpic}].
122616 2013-03-07 21:37:40 /0511/hep-ex.0511024 0100000[\issuenumber, \topage, \volnumber, \keyword, \recrevdate, \frompage, \PACS, \authors, \edyear]; 1 missing file[hiph-preprint.sty].
122617 2013-03-07 21:37:34 /0511/hep-ex.0511028 790000[\IAref, \Anotfoot, \Iref, {Authlist}, \Aref, \Instfoot, \docnum, \submitted, \IIref]; 1 missing file[cernart.cls].
122618 2013-03-07 21:37:25 /0511/hep-ex.0511015 810000[\smaller].
122619 2013-03-07 21:37:21 /0511/hep-ex.0511033 020000[\abstracts]; 1 missing file[ws.sty].
122620 2013-03-07 21:37:12 /0511/hep-ex.0511016 5620000[\smaller, \fmfrightn, \PsB, \layoutstyle, \fmflabel, \Pgpz, \Paqs, \PgUc, {fmfgraph*}, \PDstpm, \fmfleftn, \Paq, \PKz, {fmffile}, \PKst, \Paqb, \Pq, \PKzL, \PJgy, \Pfz, \PKstz, \Pqs, \Pcgh, \PKm, \Pgg, \PK, \PaB, \PBz, {theacknowledgments}, \fmf, \Pqc, \
122621 2013-03-07 21:37:05 /0511/hep-ex.0511017 6130000[\issuenumber, \topage, \volnumber, \keyword, \epsfbox, \recrevdate, \frompage, \PACS, \authors, \epsfxsize, \epsfysize, \edyear]; 1 missing file[hiph-art.sty].
122622 2013-03-07 21:36:53 /0511/hep-ex.0511003 120000[\layoutstyle, \classification].
122623 2013-03-07 21:36:52 /0511/hep-ex.0511004 810000[\psfrag].
122624 2013-03-07 21:36:50 /0511/gr-qc.0511118 28340000[Align, \xymatrix, \ar]; 1 missing file[xy.sty].
122625 2013-03-07 21:36:49 /0511/hep-ex.0511010 55140000[\smaller, \report, \figurebox, \epsfxsize]; 1 missing file[ws.sty].
122626 2013-03-07 21:36:40 /0511/hep-ex.0511008 420000[\layoutstyle, \classification].
122627 2013-03-07 21:36:14 /0511/gr-qc.0511162 3740000[\ack, {subequations}, \nonum, \ead].
122628 2013-03-07 21:36:01 /0511/gr-qc.0511154 7130000[\psfrag].
122629 2013-03-07 21:35:49 /0511/hep-ex.0511001 310000[\ead].
122630 2013-03-07 21:35:27 /0511/gr-qc.0511148 070000[\captionsamerican, \extrasenglish, \dateamerican, \noextrasenglish, \extrasamerican, \dateenglish, \captionsenglish].
122631 2013-03-07 21:35:20 /0511/gr-qc.0511155 230000[\rest, \bt, \newsymbol].
122632 2013-03-07 21:35:06 /0511/gr-qc.0511152 020000[\ack, \ead].
122633 2013-03-07 21:34:53 /0511/gr-qc.0511120 18260000[\extrasenglish, \accentset, \underaccent, \geometry, \dateenglish, \captionsenglish].
122634 2013-03-07 21:34:44 /0511/gr-qc.0511142 130000[\TCItag, \QATOP, \tag].
122635 2013-03-07 21:33:51 /0511/gr-qc.0511134 2020000[\layoutstyle, \classification].
122636 2013-03-07 21:33:33 /0511/gr-qc.0511113 2140000[\citeasnoun].
122637 2013-03-07 21:32:10 /0511/gr-qc.0511089 130000[\extrasenglish, \dateenglish, \captionsenglish].
122638 2013-03-07 21:31:42 /0511/gr-qc.0511033 118210000[\theappendix, \psfrag].
122639 2013-03-07 21:31:35 /0511/gr-qc.0511096 870000[\comby, \catchline, {history}, \revised, \keywords, \received]; 1 missing file[ws.sty].
122640 2013-03-07 21:29:42 /0511/gr-qc.0511051 030000[\extrasenglish, \dateenglish, \captionsenglish].
122641 2013-03-07 21:29:22 /0511/gr-qc.0511038 2170000[\citeauthoryear, \citeyear, \citeyearNP, \shortciteN, \shortciteNP, \citeNP, \citeN].
122642 2013-03-07 21:29:17 /0511/gr-qc.0511034 030000[\extrasenglish, \dateenglish, \captionsenglish].
122643 2013-03-07 21:29:06 /0511/gr-qc.0511026 310000[\published].
122644 2013-03-07 21:28:46 /0511/cs.0511039 40260000[{keywords}, \PARstart, \multiputlist, \appendices, {proof}, \boxast]; 1 missing file[IEEEtran.cls].
122645 2013-03-07 21:28:27 /0511/gr-qc.0511021 020000[\subref].
122646 2013-03-07 21:28:20 /0511/gr-qc.0511008 4820000[\psfrag, \2].
122647 2013-03-07 21:28:05 /0511/cs.0511092 32020000[\theappendix]; 1 missing file[fancyvrb.sty].
122648 2013-03-07 21:28:03 /0511/gr-qc.0511017 030000[\psfrag].
122649 2013-03-07 21:27:33 /0511/cs.0511097 97110000[{cor}, \lmcsheading, \qed, \keywords, \proof, \address, \email, \subjclass, {thm}, {defi}, {lem}]; 1 missing file[LMCS.cls].
122650 2013-03-07 21:27:12 /0511/gr-qc.0511010 410000[Align].
122651 2013-03-07 21:27:01 /0511/cs.0511095 10550000[Align, \psfrag, \IEEEmembership, \appendices, {proof}]; 1 missing file[IEEEtran.cls].
122652 2013-03-07 21:26:59 /0511/cs.0511102 150000[\authorblockN, \nth, \authorrefmark, \authorblockA]; 2 missing files[IEEEtran.cls, nth.sty].
122653 2013-03-07 21:26:41 /0511/cs.0511101 110000[\geometry].
122654 2013-03-07 21:26:33 /0511/cs.0511107 330000[\@affiliation].
122655 2013-03-07 21:26:30 /0511/cs.0511084 1810000[{comment}].
122656 2013-03-07 21:26:29 /0511/cs.0511108 2640000[\psfig]; 1 missing file[psfig].
122657 2013-03-07 21:26:02 /0511/cs.0511096 4330000[\authorblockN, \authorblockA, \IEEEoverridecommandlockouts]; 1 missing file[IEEEtran.cls].
122658 2013-03-07 21:25:59 /0511/cs.0511091 570000[\email, \category, \affaddr, \numberofauthors, \terms, \alignauthor, \keywords].
122659 2013-03-07 21:25:48 /0511/cs.0511055 147160000[\citeauthoryear, \citeyear, {keywords}, \accepted, \citeNP, \submitted, \revised, \citeN, {proof}]; 1 missing file[tlp.cls].
122660 2013-03-07 21:25:43 /0511/cs.0511060 3620000[{keywords}, {proof}]; 1 missing file[IEEEtran.cls].
122661 2013-03-07 21:25:39 /0511/cs.0511094 020000[\setmargnohf, \setpapersize].
122662 2013-03-07 21:25:26 /0511/cs.0511076 070000[\address, \textipa, \ninept, \textinvscr, \textturnr]; 2 missing files[interspeech2005.sty, tipa.sty].
122663 2013-03-07 21:25:20 /0511/cs.0511074 060000[\topmargin, \evensidemargin, \textheight, \headheight, \textwidth, \oddsidemargin].
122664 2013-03-07 21:25:16 /0511/cs.0511079 050000[\address, \ninept, \textesh]; 2 missing files[interspeech2005.sty, tipa.sty].
122665 2013-03-07 21:25:06 /0511/cs.0511014 15030000[\endprooftree, \justifies, \prooftree].
122666 2013-03-07 21:25:04 /0511/cs.0511083 020000[{keywords}]; 1 missing file[nrj.sty].
122667 2013-03-07 21:24:57 /0511/cs.0511045 14930000[\infer].
122668 2013-03-07 21:24:49 /0511/cs.0511048 2620000[{proof}]; 2 missing files[IEEEtran.cls, xy.sty].
122669 2013-03-07 21:24:46 /0511/cs.0511050 2520000[\authorblockN, \authorblockA]; 1 missing file[IEEEtran.cls].
122670 2013-03-07 21:24:44 /0511/cs.0511047 1130000[\authorblockN, \IEEEtriggeratref, \authorblockA]; 1 missing file[IEEEtran.cls].
122671 2013-03-07 21:24:23 /0511/cs.0511036 1110000[\psfrag].
122672 2013-03-07 21:24:20 /0511/cs.0511024 54630000[\psplot, \FPsub, \VxDa, \xUn, \rrbracket, \xD, \VyUn, \rU, \parametricplot, \yUn, \FProot, \VxD, \VyU, \caryU, \xDe, \VyDe, \carD, \captions@French, \carxU, \VxDe, \caryD, \VxUa, \carxD, \captionsfrench, \yDe, \yZ, \carU, \xU, \yU, \lU, \yT, \VyDa, \VyD,
122673 2013-03-07 21:24:18 /0511/cs.0511051 690000[{itwreferences}, \itwtitle, \itwsection, {itwpaper}, {itwabstract}, \itwmaketitle, \itwauthor]; 1 missing file[isit2004.sty].
122674 2013-03-07 21:24:16 /0511/cs.0511037 3450000[\authorblockN, {keywords}, \authorblockA, \psfrag, {psfrags}]; 1 missing file[IEEEtran.cls].
122675 2013-03-07 21:24:09 /0511/cond-mat.0511743 28730000[\D, \E, \I].
122676 2013-03-07 21:24:08 /0511/cs.0511042 360000[\citeauthoryear, {example}, \paper, \collection]; 2 missing files[named.sty, kcp.sty].
122677 2013-03-07 21:24:05 /0511/cs.0511025 49150000[Align, \SIGACTmaketitle, \infer]; 1 missing file[SIGACTNews.sty].
122678 2013-03-07 21:24:03 /0511/cs.0511023 69200000[\citeNN, {bottomstuff}, \theappendix, \PTIME, {remark}, \citeN, {notation}, \citeauthoryear, \NLOGSPACE, {received}, \terms, \qed, \keywords, {definition}, \category, \newdef, {proof}]; 3 missing files[acmtrans2m.cls, complexity.sty, pslatex.sty].
122679 2013-03-07 21:23:23 /0511/cs.0511029 5110000[{keywords}]; 1 missing file[IEEEtran.cls].
122680 2013-03-07 21:23:14 /0511/cs.0511026 14130000[\mathds, \setkomafont, \medop, |, \Set, \set, \addtokomafont, \setbibpreamble]; 2 missing files[nccmath.sty, scrartcl.cls].
122681 2013-03-07 21:22:45 /0511/cs.0511012 010000[\Circle].
122682 2013-03-07 21:22:39 /0511/cs.0511003 290000[\len, {keywords}, \PARstart, \IEEEpeerreviewmaketitle, \IEEEmembership, \psfrag, {proof}, \bigp, \biglen]; 1 missing file[IEEEtran.cls].
122683 2013-03-07 21:22:36 /0511/cs.0511020 210000[\listplot].
122684 2013-03-07 21:22:18 /0511/cs.0511019 210000[\geometry].
122685 2013-03-07 21:22:08 /0511/cs.0511002 0160000[\affil, \authormark, \aaps, \aindex, \paperID, \acknowledgments, \keywords, \paindex, \htmladdURL, \email, \reference, \plotone, {references}, \contact]; 1 missing file[adassconf.sty].
122686 2013-03-07 21:21:28 /0511/cond-mat.0511727 3420000[\rrbracket, \llbracket].
122687 2013-03-07 21:21:21 /0511/cond-mat.0511739 530000[\kword, \abst, \inst].
122688 2013-03-07 21:21:20 /0511/cond-mat.0511729 430000[{theacknowledgments}, \layoutstyle, \classification].
122689 2013-03-07 21:21:05 /0511/cond-mat.0511710 810000[\psfrag].
122690 2013-03-07 21:20:58 /0511/cond-mat.0511725 040000[\abstracts, \cdash, \refcite]; 1 missing file[ws.sty].
122691 2013-03-07 21:20:44 /0511/cond-mat.0511712 030000[\extrasenglish, \dateenglish, \captionsenglish].
122692 2013-03-07 21:20:22 /0511/cond-mat.0511633 4230000[\tmspace, \psfrag, \txtmu].
122693 2013-03-07 21:20:20 /0511/cond-mat.0511696 450000[\twofigures, \@affiliation, \onefigure, \etal].
122694 2013-03-07 21:20:14 /0511/cond-mat.0511706 610000[\psfrag].
122695 2013-03-07 21:19:51 /0511/cond-mat.0511675 810000[\topmargin].
122696 2013-03-07 21:19:15 /0511/cond-mat.0511644 3760000[\kword, \abst, \inst, \mib, \acknowledgements, \citen].
122697 2013-03-07 21:19:06 /0511/cond-mat.0511648 030000[\extrasenglish, \dateenglish, \captionsenglish].
122698 2013-03-07 21:18:47 /0511/cond-mat.0511627 2040000[\ack, \rmd, \rme, \ead].
122699 2013-03-07 21:18:06 /1201/1201.6118 12100000[Align, \xymatrix, \ar]; 2 missing files[xy.sty, mathbbol.sty].
122700 2013-03-07 21:17:53 /1201/1201.6101 590000[\firstsection, \editors, \affiliation, \jname, \pagerange, \keywords, \volume, \pubyear]; 2 missing files[pagefram.sty, iaus.cls].
122701 2013-03-07 21:17:48 /1201/1201.6117 020000[{comment}]; 1 missing file[ifsym.sty].
122702 2013-03-07 21:17:47 /1201/1201.6086 1120000[\includegraphics, \ShortTitle, \email, \FullConference, \speaker]; 1 missing file[PoS.cls].
122703 2013-03-07 21:17:46 /0511/cond-mat.0511613 740000[\@affiliation, \onefigure].
122704 2013-03-07 21:17:45 /1201/1201.6185 2940000[Align, \xymatrix, \ar]; 1 missing file[xy.sty].
122705 2013-03-07 21:17:28 /1201/1201.6127 640000[\includegraphics, \ShortTitle, \FullConference, \speaker]; 1 missing file[PoS1.cls].
122706 2013-03-07 21:17:17 /1201/1201.6137 2530000[\cortext].
122707 2013-03-07 21:17:16 /1201/1201.6158 3810000[\institute]; 1 missing file[cernyrep.cls].
122708 2013-03-07 21:16:47 /1201/1201.6188 28860000[\nicefrac, \frownie]; 3 missing files[marvosym.sty, chemarr.sty, pslatex.sty].
122709 2013-03-07 21:16:44 /1201/1201.6198 640000[\theappendix]; 1 missing file[aalongtable.sty].
122710 2013-03-07 21:16:18 /1201/1201.6157 1440000[\ArrowArc, \Text, \DashArrowArc, \DashLine]; 1 missing file[LCWS11.cls].
122711 2013-03-07 21:16:10 /1201/1201.6162 5380000[Align, \subfloat, {comment}, \psmatrix, \endpsmatrix, \mathinner]; 2 missing files[pst-tree.sty, chl-alg.sty].
122712 2013-03-07 21:16:07 /1201/1201.6216 97640000[\bolds, \syear, \printaddresses, {bmisc}, \mathfrak, \volume, \bid, \address, \thanksref, \bfnm, \dvtx, \byear, \endbibitem, \received, \snm, \beditor, \btitle, \tfrac, \smonth, \issue, \runauthor, \AND, {barticle}, \citeyear, \bptok, \runtitle, \bpublis
122713 2013-03-07 21:16:03 /1201/1201.6154 1020000[\degree]; 1 missing file[gensymb.sty].
122714 2013-03-07 21:15:59 /1201/1201.6167 020000[\umu]; 1 missing file[hypcap.sty].
122715 2013-03-07 21:15:46 /1201/1201.6165 2520000[\email]; 1 missing file[xy.sty].
122716 2013-03-07 21:15:39 /1201/1201.6164 4530000[\gtrsim, \institute]; 2 missing files[cernyrep.cls, texnames.sty].
122717 2013-03-07 21:15:38 /1201/1201.6169 010000[\ead].
122718 2013-03-07 21:15:28 /1201/1201.6178 030000[\mciteSetMidEndSepPunct, {subequations}]; 1 missing file[mciteplus.sty].
122719 2013-03-07 21:15:27 /1201/1201.6163 110000[\session].
122720 2013-03-07 21:15:14 /1201/1201.6175 1220000[\slashed].
122721 2013-03-07 21:15:10 /1201/1201.6174 3260000[\proc, \zi, {codebox}, \const]; 1 missing file[clrscode.sty].
122722 2013-03-07 21:14:50 /1201/1201.6181 2260000[{sidewaystable}, \psfrag]; 3 missing files[flushend.sty, sidecap.sty, llncsdoc.sty].
122723 2013-03-07 21:14:48 /1201/1201.6343 46870000[\endxy, Align, \xymatrix, \xy, \ar]; 1 missing file[xy.sty].
122724 2013-03-07 21:14:30 /1201/1201.6201 118200000[{comment}].
122725 2013-03-07 21:14:16 /1201/1201.6208 010000[\cortext].
122726 2013-03-07 21:14:02 /1201/1201.6249 2940000[Align, \xymatrix, \ar]; 1 missing file[xy.sty].
122727 2013-03-07 21:13:48 /1201/1201.6193 030000[\extrasenglish, \dateenglish, \captionsenglish].
122728 2013-03-07 21:13:25 /1201/1201.6206 2020000[\PACS]; 1 missing file[size11.clo.sty].
122729 2013-03-07 21:13:18 /1201/1201.6211 36770000[\syear, \printaddresses, {bmisc}, \volume, {example}, \bid, \address, \bfnm, \dvtx, \byear, \endbibitem, \received, \mathbb, \snm, \beditor, \btitle, \smonth, \issue, \runauthor, \AND, {barticle}, \citeyear, \bedition, \bptok, {longlist}, \runtitle, \bpu
122730 2013-03-07 21:12:36 /1201/1201.6212 3710000[\ead].
122731 2013-03-07 21:12:35 /1201/1201.6220 340000[\ShortTitle, \email, \FullConference, \speaker]; 1 missing file[PoS.cls].
122732 2013-03-07 21:12:14 /1201/1201.6246 41130000[Align, \xymatrix, \ar]; 10 missing files[xycurve.sty, xymatrix.sty, xyline.sty, xyarrow.sty, xycmtip.sty, xycolor.sty, xyrotate.sty, xy.sty, xyframe.sty, xygraph.sty].
122733 2013-03-07 21:12:14 /1201/1201.6228 3630000[\y, \brk, \ssixty, \pgfmathsetmacro, {tikzpicture}, \colorlet, \brscale, \x, \draw, \csixty, \node, {pgfonlayer}, {scope}, \foreach, \brunnianlink, \usetikzlibrary, \a, \setbrstep, \brunnian]; 1 missing file[brunnian.sty].
122734 2013-03-07 21:12:12 /1201/1201.6236 750000[{lemma}, {theorem}, {AMS}, {proof}, {proposition}].
122735 2013-03-07 21:11:52 /1201/1201.6229 2040000[\ShortTitle, \email, \FullConference, \speaker]; 1 missing file[PoS.cls].
122736 2013-03-07 21:11:52 /1201/1201.6227 1100000[\affil, \citep, \acknowledgments, \keywords, \shortauthors, \shorttitle, \psfrag, \citet, \citetext]; 2 missing files[apjfonts.sty, emulateapj-rtx4.cls].
122737 2013-03-07 21:11:41 /1201/1201.6225 640000[\ShortTitle, \email, \FullConference, \speaker]; 1 missing file[PoS.cls].
122738 2013-03-07 21:11:33 /1201/1201.6238 520000[\bra, \ket].
122739 2013-03-07 21:11:32 /1201/1201.6248 6340000[\IEEEauthorblockA, \IEEEauthorblockN, \IEEEauthorrefmark, \hypersetup]; 1 missing file[IEEEtran.cls].
122740 2013-03-07 21:11:29 /1201/1201.6234 210000[\theappendix].
122741 2013-03-07 21:11:25 /1201/1201.6240 9180000[\affil, \lesssim, \citep, \resizebox, \resetcounters, \includegraphics, \citealt, \citet, \acknowledgements]; 1 missing file[asp2010.sty].
122742 2013-03-07 21:11:07 /1201/1201.6250 230000[\href, \email, \pos]; 1 missing file[JINST.cls].
122743 2013-03-07 21:11:07 /1201/1201.6231 050000[\nicefrac, \extrasenglish, \dateenglish, \captionsenglish]; 1 missing file[breakurl.sty].
122744 2013-03-07 21:10:59 /1201/1201.6259 530000[\theappendix]; 1 missing file[afterpage.sty].
122745 2013-03-07 21:10:56 /1201/1201.6283 4470000[\node, \arrow, \geometry, {diagram}].
122746 2013-03-07 21:10:51 /1201/1201.6258 5130000[\Issue, \inst, \Month, \Reviseddate, \Receiveddate, \DOIsuffix, \Volume, \keywords, \pagespan, \Dateposted, \Year, \Accepteddate, {acknowledgement}].
122747 2013-03-07 21:10:48 /1201/1201.6276 6340000[Align, \xymatrix, \ar]; 1 missing file[xy.sty].
122748 2013-03-07 21:10:33 /1201/1201.6270 010000[\sep].
122749 2013-03-07 21:10:26 /1201/1201.6268 610000[\session].
122750 2013-03-07 21:10:21 /1201/1201.6272 105190000[\Atriangle, \xymatrix, \Vtriangle, \two, \efig, Align, \bfig, \qtriangle, \ar]; 10 missing files[xycurve.sty, xymatrix.sty, xyline.sty, xyarrow.sty, xycmtip.sty, xycolor.sty, xyrotate.sty, xyframe.sty, diagxy, xygraph.sty].
122751 2013-03-07 21:10:09 /1201/1201.6277 18170000[Align, {comment}, \xymatrix, \ar]; 1 missing file[xy.sty].
122752 2013-03-07 21:10:06 /1201/1201.6265 210000[\ead].
122753 2013-03-07 21:09:49 /1201/1201.6285 20260000[\@mkboth, \@starttoc]; 1 missing file[collref.sty].
122754 2013-03-07 21:09:39 /1201/1201.6286 110000[\mathinner].
122755 2013-03-07 21:09:33 /1201/1201.6271 1610000[\subref].
122756 2013-03-07 21:09:28 /1201/1201.6300 2130000[\cancel, \maybebm]; 1 missing file[maybemath.sty].
122757 2013-03-07 21:09:06 /1201/1201.6337 8710000[\slashed].
122758 2013-03-07 21:09:05 /1201/1201.6282 5440000[{keywords}, \IEEEauthorblockA, \IEEEauthorblockN, \EndProcedure, {algorithm*}, \Comment, {algorithmic}, \Statex, \If, \For, \Require, \EndIf, \Procedure, \EndFor, \Else, \EndWhile, \While, \pdfminorversion, \State, \Return, \rowcolor]; 2 missing files[en
122759 2013-03-07 21:08:56 /1201/1201.6314 4230000[\drawline]; 2 missing files[nccmath.sty, boxedminipage.sty].
122760 2013-03-07 21:08:45 /1201/1201.6350 144130000[\rrceil, \xyoption, \rrbracket, \llceil, \llbracket]; 1 missing file[xy.sty].
122761 2013-03-07 21:08:40 /1201/1201.6291 4560000[\bibinfo, {sidewaystable}, \cortext].
122762 2013-03-07 21:08:20 /1201/1201.6315 1660000[{definition}, {lemma}, {corollary}, {AMS}, {proof}, {proposition}].
122763 2013-03-07 21:08:01 /1201/1201.6318 4810000[\mathlarger].
122764 2013-03-07 21:07:38 /1201/1201.6317 1810000[\trianglelefteqslant].
122765 2013-03-07 21:07:17 /1201/1201.6313 730000[\affil, \IEEEoverridecommandlockouts]; 2 missing files[authblk.sty, IEEEtran.cls].
122766 2013-03-07 21:07:15 /1201/1201.6336 29300000[\slashed].
122767 2013-03-07 21:07:06 /1201/1201.6327 2570000[Align, \xymatrix, \ar, \marginsize]; 2 missing files[xy.sty, mdwlist.sty].
122768 2013-03-07 21:06:59 /1201/1201.6323 4210000[\mathds].
122769 2013-03-07 21:06:52 /1201/1201.6331 3210000[\listfiles].
122770 2013-03-07 21:06:39 /1201/1201.6416 630000[\subfloat, {sidewaysfigure}, \comment].
122771 2013-03-07 21:06:39 /1201/1201.6322 2310000[\subref].
122772 2013-03-07 21:06:23 /1201/1201.6325 040000[\extrasenglish, \dateenglish, \captionsenglish]; 1 missing file[esint.sty].
122773 2013-03-07 21:06:02 /1201/1201.6347 1410000[\theappendix].
122774 2013-03-07 21:06:02 /1201/1201.6335 3930000[\ead].
122775 2013-03-07 21:05:55 /1201/1201.6338 040000[\PACSes, \PACSit, \instlist, \from].
122776 2013-03-07 21:05:40 /1201/1201.6344 030000[\textdegree]; 2 missing files[MnSymbol.sty, ifsym.sty].
122777 2013-03-07 21:05:31 /1201/1201.6354 120000[\tablebib, \varv].
122778 2013-03-07 21:05:30 /1201/1201.6370 1410000[\theappendix].
122779 2013-03-07 21:05:27 /1201/1201.6357 710000[{sideways}].
122780 2013-03-07 21:05:16 /1201/1201.6364 710000[\midrule].
122781 2013-03-07 21:05:13 /1201/1201.6412 10340000[\copyrightyear, {dedication}, \textgoth, \makecopyright, \copyrightholder, \figurelistpage, \degreefield, \singlespacing, \toprule, \bottomrule, {framed}, {biosketch}, {acknowledgements}, \X, {lstlisting}, \midrule, \contentspage, \normalspacing, \hangca
122782 2013-03-07 21:04:58 /1201/1201.6353 30100000[\pacs, \inst, \shortauthor, \institute, \onefigure, \acknowledgments, \shorttitle, \Name, \REVIEW, \etal]; 1 missing file[epl2.cls].
122783 2013-03-07 21:04:34 /1201/1201.6380 650000[\eqref, \affiliation, \emailAdd, \acknowledgments]; 1 missing file[jheppubcustom.sty].
122784 2013-03-07 21:04:01 /1201/1201.6384 2720000[\subfloat]; 1 missing file[mathtools.sty].
122785 2013-03-07 21:03:46 /1201/1201.6404 1710000[\subfloat].
122786 2013-03-07 21:03:36 /1201/1201.6407 7110000[\theappendix].
122787 2013-03-07 21:03:17 /1201/1201.6382 510000[\theappendix].
122788 2013-03-07 21:03:08 /1201/1201.6402 1120000[\affil, \href, \subfloat, \authorcr]; 1 missing file[authblk.sty].
122789 2013-03-07 21:02:48 /1201/1201.6403 740000[Align, \xymatrix, \ar]; 1 missing file[xy.sty].
122790 2013-03-07 21:02:37 /1201/1201.6411 270000[\today, \\, \title, \date, \and, \thanks, \author].
122791 2013-03-07 21:02:34 /1201/1201.6452 4530000[\collectsep]; 2 missing files[collref.sty, mathtools.sty].
122792 2013-03-07 21:02:27 /1201/1201.6504 29680000[\extrasenglish, \pdfpageheight, \pdfpagewidth, \noextrasenglish, \dateenglish, \captionsenglish]; 1 missing file[esint.sty].
122793 2013-03-07 21:02:22 /1201/1201.6426 4250000[\affiliation, \emailAdd, \acknowledgments]; 2 missing files[xy.sty, jheppub.sty].
122794 2013-03-07 21:01:51 /1201/1201.6420 030000[{theacknowledgments}, \layoutstyle, \classification].
122795 2013-03-07 21:01:50 /1201/1201.6418 1220000[\includegraphics, \pacs, \shortauthor, {largetable}, \institute, \acknowledgments]; 1 missing file[epl2.cls].
122796 2013-03-07 21:01:33 /1201/1201.6417 060000[\includegraphics, \affil, \resetcounters, \acknowledgments]; 1 missing file[asp2010.sty].
122797 2013-03-07 21:01:24 /1201/1201.6425 10140000[\theappendix, \authorblockN, {keywords}, \IEEEoverridecommandlockouts]; 1 missing file[IEEEtran.cls].
122798 2013-03-07 21:01:16 /1201/1201.6428 21200000[\wboxa, \Dpi, \dA, \bs, \ddi, \wbox, \dB]; 1 missing file[cancellation.sty].
122799 2013-03-07 21:00:58 /1201/1201.6475 18120000[@ , \geometry].
122800 2013-03-07 21:00:58 /1201/1201.6438 1350000[{lemma}, {keywords}, {theorem}, {AMS}, {proof}]; 1 missing file[siamltex704.cls].
<<< >>>

[0] [200] [400] [600] [800] [1000] [1200] [1400] [1600] [1800] [2000] [2200] [2400] [2600] [2800] [3000] [3200] [3400] [3600] [3800] [4000] [4200] [4400] [4600] [4800] [5000] [5200] [5400] [5600] [5800] [6000] [6200] [6400] [6600] [6800] [7000] [7200] [7400] [7600] [7800] [8000] [8200] [8400] [8600] [8800] [9000] [9200] [9400] [9600] [9800] [10000] [10200] [10400] [10600] [10800] [11000] [11200] [11400] [11600] [11800] [12000] [12200] [12400] [12600] [12800] [13000] [13200] [13400] [13600] [13800] [14000] [14200] [14400] [14600] [14800] [15000] [15200] [15400] [15600] [15800] [16000] [16200] [16400] [16600] [16800] [17000] [17200] [17400] [17600] [17800] [18000] [18200] [18400] [18600] [18800] [19000] [19200] [19400] [19600] [19800] [20000] [20200] [20400] [20600] [20800] [21000] [21200] [21400] [21600] [21800] [22000] [22200] [22400] [22600] [22800] [23000] [23200] [23400] [23600] [23800] [24000] [24200] [24400] [24600] [24800] [25000] [25200] [25400] [25600] [25800] [26000] [26200] [26400] [26600] [26800] [27000] [27200] [27400] [27600] [27800] [28000] [28200] [28400] [28600] [28800] [29000] [29200] [29400] [29600] [29800] [30000] [30200] [30400] [30600] [30800] [31000] [31200] [31400] [31600] [31800] [32000] [32200] [32400] [32600] [32800] [33000] [33200] [33400] [33600] [33800] [34000] [34200] [34400] [34600] [34800] [35000] [35200] [35400] [35600] [35800] [36000] [36200] [36400] [36600] [36800] [37000] [37200] [37400] [37600] [37800] [38000] [38200] [38400] [38600] [38800] [39000] [39200] [39400] [39600] [39800] [40000] [40200] [40400] [40600] [40800] [41000] [41200] [41400] [41600] [41800] [42000] [42200] [42400] [42600] [42800] [43000] [43200] [43400] [43600] [43800] [44000] [44200] [44400] [44600] [44800] [45000] [45200] [45400] [45600] [45800] [46000] [46200] [46400] [46600] [46800] [47000] [47200] [47400] [47600] [47800] [48000] [48200] [48400] [48600] [48800] [49000] [49200] [49400] [49600] [49800] [50000] [50200] [50400] [50600] [50800] [51000] [51200] [51400] [51600] [51800] [52000] [52200] [52400] [52600] [52800] [53000] [53200] [53400] [53600] [53800] [54000] [54200] [54400] [54600] [54800] [55000] [55200] [55400] [55600] [55800] [56000] [56200] [56400] [56600] [56800] [57000] [57200] [57400] [57600] [57800] [58000] [58200] [58400] [58600] [58800] [59000] [59200] [59400] [59600] [59800] [60000] [60200] [60400] [60600] [60800] [61000] [61200] [61400] [61600] [61800] [62000] [62200] [62400] [62600] [62800] [63000] [63200] [63400] [63600] [63800] [64000] [64200] [64400] [64600] [64800] [65000] [65200] [65400] [65600] [65800] [66000] [66200] [66400] [66600] [66800] [67000] [67200] [67400] [67600] [67800] [68000] [68200] [68400] [68600] [68800] [69000] [69200] [69400] [69600] [69800] [70000] [70200] [70400] [70600] [70800] [71000] [71200] [71400] [71600] [71800] [72000] [72200] [72400] [72600] [72800] [73000] [73200] [73400] [73600] [73800] [74000] [74200] [74400] [74600] [74800] [75000] [75200] [75400] [75600] [75800] [76000] [76200] [76400] [76600] [76800] [77000] [77200] [77400] [77600] [77800] [78000] [78200] [78400] [78600] [78800] [79000] [79200] [79400] [79600] [79800] [80000] [80200] [80400] [80600] [80800] [81000] [81200] [81400] [81600] [81800] [82000] [82200] [82400] [82600] [82800] [83000] [83200] [83400] [83600] [83800] [84000] [84200] [84400] [84600] [84800] [85000] [85200] [85400] [85600] [85800] [86000] [86200] [86400] [86600] [86800] [87000] [87200] [87400] [87600] [87800] [88000] [88200] [88400] [88600] [88800] [89000] [89200] [89400] [89600] [89800] [90000] [90200] [90400] [90600] [90800] [91000] [91200] [91400] [91600] [91800] [92000] [92200] [92400] [92600] [92800] [93000] [93200] [93400] [93600] [93800] [94000] [94200] [94400] [94600] [94800] [95000] [95200] [95400] [95600] [95800] [96000] [96200] [96400] [96600] [96800] [97000] [97200] [97400] [97600] [97800] [98000] [98200] [98400] [98600] [98800] [99000] [99200] [99400] [99600] [99800] [100000] [100200] [100400] [100600] [100800] [101000] [101200] [101400] [101600] [101800] [102000] [102200] [102400] [102600] [102800] [103000] [103200] [103400] [103600] [103800] [104000] [104200] [104400] [104600] [104800] [105000] [105200] [105400] [105600] [105800] [106000] [106200] [106400] [106600] [106800] [107000] [107200] [107400] [107600] [107800] [108000] [108200] [108400] [108600] [108800] [109000] [109200] [109400] [109600] [109800] [110000] [110200] [110400] [110600] [110800] [111000] [111200] [111400] [111600] [111800] [112000] [112200] [112400] [112600] [112800] [113000] [113200] [113400] [113600] [113800] [114000] [114200] [114400] [114600] [114800] [115000] [115200] [115400] [115600] [115800] [116000] [116200] [116400] [116600] [116800] [117000] [117200] [117400] [117600] [117800] [118000] [118200] [118400] [118600] [118800] [119000] [119200] [119400] [119600] [119800] [120000] [120200] [120400] [120600] [120800] [121000] [121200] [121400] [121600] [121800] [122000] [122200] [122400] [122600] [122800] [123000] [123200] [123400] [123600] [123800] [124000] [124200] [124400] [124600] [124800] [125000] [125200] [125400] [125600] [125800] [126000] [126200] [126400] [126600] [126800] [127000] [127200] [127400] [127600] [127800] [128000] [128200] [128400] [128600] [128800] [129000] [129200] [129400] [129600] [129800] [130000] [130200] [130400] [130600] [130800] [131000] [131200] [131400] [131600] [131800] [132000] [132200] [132400] [132600] [132800] [133000] [133200] [133400] [133600] [133800] [134000] [134200] [134400] [134600] [134800] [135000] [135200] [135400] [135600] [135800] [136000] [136200] [136400] [136600] [136800] [137000] [137200] [137400] [137600] [137800] [138000] [138200] [138400] [138600] [138800] [139000] [139200] [139400] [139600] [139800] [140000] [140200] [140400] [140600] [140800] [141000] [141200] [141400] [141600] [141800] [142000] [142200] [142400] [142600] [142800] [143000] [143200] [143400] [143600] [143800] [144000] [144200] [144400] [144600] [144800] [145000] [145200] [145400] [145600] [145800] [146000] [146200] [146400] [146600] [146800] [147000] [147200] [147400] [147600] [147800] [148000] [148200] [148400] [148600] [148800] [149000] [149200] [149400] [149600] [149800] [150000] [150200] [150400] [150600] [150800] [151000] [151200] [151400] [151600] [151800] [152000] [152200] [152400] [152600] [152800] [153000] [153200] [153400] [153600] [153800] [154000] [154200] [154400] [154600] [154800] [155000] [155200] [155400] [155600] [155800] [156000] [156200] [156400] [156600] [156800] [157000] [157200] [157400] [157600] [157800] [158000] [158200] [158400] [158600] [158800] [159000] [159200] [159400] [159600] [159800] [160000] [160200] [160400] [160600] [160800] [161000] [161200] [161400] [161600] [161800] [162000] [162200] [162400] [162600] [162800] [163000] [163200] [163400] [163600] [163800] [164000] [164200] [164400] [164600]
 
  The service has been written by
Heinrich Stamerjohanns